Time;durP1;ratioP1;P1;durP2;ratioP2;P2;SDS_P1;SDS_P2;PMS_P1;PMS_P2;Temp;Humidity;BMP_temperature;BMP_pressure;BME280_temperature;BME280_humidity;BME280_pressure;Samples;Min_cycle;Max_cycle;Signal;HPM_P1;HPM_P2
2022/01/21 00:00:25;;;;;;;7.47;5.38;;;;;;;;;;2122095;28;20117;-44
2022/01/21 00:01:26;;;;;;;8.73;5.13;;;;;;;;;;2116935;28;20134;-45
2022/01/21 00:02:28;;;;;;;10.63;5.68;;;;;;;;;;2118255;27;20043;-45
2022/01/21 00:03:30;;;;;;;10.23;5.68;;;;;;;;;;2122239;27;20047;-44
2022/01/21 00:04:31;;;;;;;12.90;4.72;;;;;;;;;;2122409;27;20129;-44
2022/01/21 00:05:32;;;;;;;8.90;5.78;;;;;;;;;;2118619;28;20043;-43
2022/01/21 00:06:34;;;;;;;8.57;5.07;;;;;;;;;;2122737;28;20504;-44
2022/01/21 00:07:34;;;;;;;9.98;6.00;;;;;;;;;;2122402;27;20275;-44
2022/01/21 00:08:36;;;;;;;13.82;6.43;;;;;;;;;;2119859;28;20404;-45
2022/01/21 00:09:46;;;;;;;13.50;6.03;;;;;;;;;;2122746;28;20055;-44
2022/01/21 00:10:47;;;;;;;9.60;4.90;;;;;;;;;;2120192;27;20138;-44
2022/01/21 00:11:48;;;;;;;9.73;5.82;;;;;;;;;;2122335;28;20068;-44
2022/01/21 00:12:52;;;;;;;7.83;4.57;;;;;;;;;;2122603;28;20075;-44
2022/01/21 00:13:53;;;;;;;9.70;4.93;;;;;;;;;;2119462;27;20409;-44
2022/01/21 00:14:55;;;;;;;10.80;5.70;;;;;;;;;;2122655;28;20431;-44
2022/01/21 00:15:55;;;;;;;9.18;4.97;;;;;;;;;;2122326;27;20150;-44
2022/01/21 00:16:57;;;;;;;9.20;5.70;;;;;;;;;;2118504;28;20048;-45
2022/01/21 00:17:58;;;;;;;12.27;7.25;;;;;;;;;;2123019;28;20077;-45
2022/01/21 00:19:04;;;;;;;9.70;5.03;;;;;;;;;;2120631;27;20079;-44
2022/01/21 00:30:57;;;;;;;7.57;4.18;;;;;;;;;;2104735;28;20062;-43
2022/01/21 00:31:58;;;;;;;11.65;5.93;;;;;;;;;;2122635;28;20046;-44
2022/01/21 00:32:59;;;;;;;8.75;5.65;;;;;;;;;;2122993;27;20047;-44
2022/01/21 00:34:01;;;;;;;8.85;4.70;;;;;;;;;;2118889;28;20042;-44
2022/01/21 00:35:02;;;;;;;11.32;5.40;;;;;;;;;;2122510;28;20480;-44
2022/01/21 00:36:05;;;;;;;9.38;5.75;;;;;;;;;;2118283;27;20039;-44
2022/01/21 00:37:06;;;;;;;10.82;4.90;;;;;;;;;;2120233;28;20079;-44
2022/01/21 00:38:07;;;;;;;11.93;5.70;;;;;;;;;;2122667;28;20047;-44
2022/01/21 00:39:09;;;;;;;9.93;5.03;;;;;;;;;;2119572;27;20060;-44
2022/01/21 00:40:13;;;;;;;11.15;5.00;;;;;;;;;;2113853;28;20590;-44
2022/01/21 00:41:19;;;;;;;10.82;4.97;;;;;;;;;;2114062;28;20127;-44
2022/01/21 00:42:44;;;;;;;12.13;5.40;;;;;;;;;;2118312;28;20058;-44
2022/01/21 00:43:45;;;;;;;11.80;5.38;;;;;;;;;;2122644;28;20047;-45
2022/01/21 00:44:46;;;;;;;7.22;3.70;;;;;;;;;;2120045;27;20051;-44
2022/01/21 00:45:49;;;;;;;8.02;4.35;;;;;;;;;;2121975;28;20537;-43
2022/01/21 00:46:50;;;;;;;9.68;5.10;;;;;;;;;;2122450;28;20051;-44
2022/01/21 00:47:51;;;;;;;11.03;5.57;;;;;;;;;;2116940;27;20039;-48
2022/01/21 00:48:52;;;;;;;7.90;4.55;;;;;;;;;;2122325;28;20043;-47
2022/01/21 00:49:54;;;;;;;10.27;5.10;;;;;;;;;;2122513;27;20491;-48
2022/01/21 00:50:55;;;;;;;10.77;5.53;;;;;;;;;;2118930;27;20140;-47
2022/01/21 00:51:56;;;;;;;12.60;5.03;;;;;;;;;;2122606;28;20867;-47
2022/01/21 00:52:57;;;;;;;10.27;6.03;;;;;;;;;;2121704;27;20075;-48
2022/01/21 00:53:58;;;;;;;8.73;4.88;;;;;;;;;;2114686;28;20075;-48
2022/01/21 00:54:59;;;;;;;9.02;4.57;;;;;;;;;;2114109;28;20082;-45
2022/01/21 00:56:01;;;;;;;9.90;4.78;;;;;;;;;;2116532;27;20428;-44
2022/01/21 00:57:02;;;;;;;9.38;5.18;;;;;;;;;;2121133;28;20491;-44
2022/01/21 00:58:03;;;;;;;8.07;3.90;;;;;;;;;;2122523;28;20092;-44
2022/01/21 00:59:04;;;;;;;9.95;4.25;;;;;;;;;;2119167;27;20541;-44
2022/01/21 01:00:06;;;;;;;8.00;4.68;;;;;;;;;;2122430;28;20047;-44
2022/01/21 01:01:08;;;;;;;8.43;5.35;;;;;;;;;;2119423;28;20051;-44
2022/01/21 01:02:10;;;;;;;9.05;4.78;;;;;;;;;;2114363;28;20078;-44
2022/01/21 01:03:13;;;;;;;11.30;4.32;;;;;;;;;;2114079;28;20136;-44
2022/01/21 01:04:14;;;;;;;9.32;4.97;;;;;;;;;;2116802;27;20205;-44
2022/01/21 01:05:16;;;;;;;6.83;3.70;;;;;;;;;;2119922;28;20055;-44
2022/01/21 01:06:17;;;;;;;7.72;5.00;;;;;;;;;;2122422;28;20134;-44
2022/01/21 01:07:19;;;;;;;11.80;4.30;;;;;;;;;;2120721;27;20077;-44
2022/01/21 01:08:21;;;;;;;10.40;4.25;;;;;;;;;;2121123;28;20126;-44
2022/01/21 01:09:22;;;;;;;7.32;4.25;;;;;;;;;;2122538;28;20039;-48
2022/01/21 01:10:35;;;;;;;8.97;4.63;;;;;;;;;;2120056;27;20052;-48
2022/01/21 01:11:55;;;;;;;6.35;3.60;;;;;;;;;;2113897;28;20138;-47
2022/01/21 01:13:02;;;;;;;8.07;3.88;;;;;;;;;;2115913;27;20155;-48
2022/01/21 01:20:38;;;;;;;10.10;3.92;;;;;;;;;;2115253;28;20137;-44
2022/01/21 01:21:43;;;;;;;;;;;;;;;;;;2119754;27;20057;-44
2022/01/21 01:22:51;;;;;;;6.05;3.10;;;;;;;;;;2123712;28;19919;-44
2022/01/21 01:24:04;;;;;;;9.02;4.10;;;;;;;;;;2123033;27;20120;-44
2022/01/21 01:27:45;;;;;;;7.40;4.43;;;;;;;;;;2116263;28;20079;-43
2022/01/21 01:28:46;;;;;;;7.75;3.80;;;;;;;;;;2115384;28;20126;-44
2022/01/21 01:29:47;;;;;;;9.30;3.55;;;;;;;;;;2115542;27;20040;-44
2022/01/21 01:30:48;;;;;;;9.13;4.82;;;;;;;;;;2115006;28;20560;-44
2022/01/21 01:31:49;;;;;;;8.48;4.18;;;;;;;;;;2115440;28;20052;-47
2022/01/21 01:32:51;;;;;;;9.20;4.25;;;;;;;;;;2118848;27;20051;-48
2022/01/21 01:33:58;;;;;;;5.45;3.40;;;;;;;;;;2123719;28;20122;-48
2022/01/21 01:34:59;;;;;;;5.78;3.70;;;;;;;;;;2123182;27;20126;-47
2022/01/21 01:36:01;;;;;;;7.03;4.07;;;;;;;;;;2119537;28;20063;-47
2022/01/21 01:37:08;;;;;;;8.80;4.03;;;;;;;;;;2123804;28;20130;-48
2022/01/21 01:38:26;;;;;;;9.63;4.60;;;;;;;;;;2121749;27;20047;-48
2022/01/21 01:39:33;;;;;;;7.10;3.60;;;;;;;;;;2115124;28;20130;-47
2022/01/21 01:40:39;;;;;;;8.77;3.97;;;;;;;;;;2114806;27;20079;-49
2022/01/21 01:41:46;;;;;;;6.45;3.53;;;;;;;;;;2119940;27;20560;-48
2022/01/21 01:49:36;;;;;;;8.85;3.60;;;;;;;;;;2117571;27;20688;-47
2022/01/21 01:50:37;;;;;;;5.50;3.70;;;;;;;;;;2116123;28;20153;-48
2022/01/21 01:51:39;;;;;;;9.33;4.10;;;;;;;;;;2115091;28;20489;-48
2022/01/21 01:52:40;;;;;;;8.35;3.33;;;;;;;;;;2119470;27;20767;-47
2022/01/21 01:53:44;;;;;;;8.52;3.85;;;;;;;;;;2123474;28;20050;-49
2022/01/21 01:54:47;;;;;;;9.88;3.75;;;;;;;;;;2123375;27;20172;-48
2022/01/21 01:55:48;;;;;;;7.03;3.50;;;;;;;;;;2119972;27;20152;-49
2022/01/21 01:56:51;;;;;;;8.27;3.78;;;;;;;;;;2123824;28;20519;-47
2022/01/21 01:57:52;;;;;;;5.95;3.28;;;;;;;;;;2123100;27;20139;-45
2022/01/21 01:58:53;;;;;;;8.80;4.00;;;;;;;;;;2121464;28;20066;-44
2022/01/21 01:59:55;;;;;;;8.10;4.22;;;;;;;;;;2123646;28;20082;-44
2022/01/21 02:00:56;;;;;;;9.65;3.45;;;;;;;;;;2117654;27;20543;-44
2022/01/21 02:01:58;;;;;;;8.98;4.00;;;;;;;;;;2114998;28;20400;-44
2022/01/21 02:02:59;;;;;;;;;;;;;;;;;;2115498;28;20108;-44
2022/01/21 02:04:01;;;;;;;10.02;3.30;;;;;;;;;;2119693;27;20313;-44
2022/01/21 02:05:02;;;;;;;6.68;2.70;;;;;;;;;;2123482;28;20492;-44
2022/01/21 02:06:04;;;;;;;11.57;3.85;;;;;;;;;;2122788;27;20527;-44
2022/01/21 02:07:06;;;;;;;5.70;3.50;;;;;;;;;;2118356;28;20053;-44
2022/01/21 02:08:07;;;;;;;;;;;;;;;;;;2123964;28;20039;-43
2022/01/21 02:09:08;;;;;;;6.57;3.42;;;;;;;;;;2123486;27;19919;-44
2022/01/21 02:10:09;;;;;;;7.25;3.47;;;;;;;;;;2120530;28;20039;-44
2022/01/21 02:11:10;;;;;;;7.97;4.15;;;;;;;;;;2123590;28;20127;-44
2022/01/21 02:12:11;;;;;;;7.80;2.97;;;;;;;;;;2122316;27;20118;-44
2022/01/21 02:13:21;;;;;;;6.32;4.07;;;;;;;;;;2115967;28;20772;-44
2022/01/21 02:14:27;;;;;;;6.72;3.35;;;;;;;;;;2114889;28;20069;-44
2022/01/21 02:15:28;;;;;;;7.63;3.65;;;;;;;;;;2119691;27;20044;-44
2022/01/21 02:16:37;;;;;;;7.90;4.20;;;;;;;;;;2123283;28;20419;-44
2022/01/21 02:21:40;;;;;;;7.95;3.75;;;;;;;;;;2115797;28;20040;-43
2022/01/21 02:22:44;;;;;;;7.78;4.05;;;;;;;;;;2114975;28;20071;-44
2022/01/21 02:23:45;;;;;;;7.50;3.78;;;;;;;;;;2117795;27;20443;-44
2022/01/21 02:24:49;;;;;;;6.50;3.90;;;;;;;;;;2123408;28;20051;-44
2022/01/21 02:25:50;;;;;;;7.25;3.97;;;;;;;;;;2123067;28;20609;-43
2022/01/21 02:26:52;;;;;;;6.90;4.07;;;;;;;;;;2117476;27;20047;-45
2022/01/21 02:27:55;;;;;;;10.00;4.68;;;;;;;;;;2123359;28;20070;-44
2022/01/21 02:28:59;;;;;;;10.23;4.30;;;;;;;;;;2123271;27;20137;-44
2022/01/21 02:30:05;;;;;;;6.03;4.20;;;;;;;;;;2120533;28;20126;-44
2022/01/21 02:31:06;;;;;;;10.00;3.60;;;;;;;;;;2123232;28;20464;-45
2022/01/21 02:32:07;;;;;;;8.20;3.50;;;;;;;;;;2120116;27;20043;-44
2022/01/21 02:33:08;;;;;;;10.75;4.18;;;;;;;;;;2114819;28;20079;-44
2022/01/21 02:34:09;;;;;;;10.73;4.27;;;;;;;;;;2114836;28;20061;-43
2022/01/21 02:35:10;;;;;;;9.68;3.90;;;;;;;;;;2118557;27;20130;-44
2022/01/21 02:36:12;;;;;;;8.63;4.35;;;;;;;;;;2123282;28;20047;-44
2022/01/21 02:37:15;;;;;;;7.68;4.32;;;;;;;;;;2123375;28;20085;-43
2022/01/21 02:38:16;;;;;;;8.35;3.92;;;;;;;;;;2116300;28;20079;-44
2022/01/21 02:39:17;;;;;;;7.70;3.93;;;;;;;;;;2114780;28;20067;-44
2022/01/21 02:40:18;;;;;;;9.55;5.13;;;;;;;;;;2116885;27;20355;-44
2022/01/21 02:41:20;;;;;;;10.18;4.93;;;;;;;;;;2120246;28;20066;-43
2022/01/21 02:42:21;;;;;;;12.05;5.03;;;;;;;;;;2123191;28;20157;-44
2022/01/21 02:43:22;;;;;;;8.80;5.22;;;;;;;;;;2120879;27;20477;-44
2022/01/21 02:44:24;;;;;;;12.63;4.78;;;;;;;;;;2115730;28;20051;-43
2022/01/21 02:45:25;;;;;;;10.82;4.18;;;;;;;;;;2114724;28;20135;-44
2022/01/21 02:46:27;;;;;;;9.90;4.63;;;;;;;;;;2116386;27;20071;-44
2022/01/21 02:47:28;;;;;;;10.70;5.50;;;;;;;;;;2123357;28;20055;-44
2022/01/21 02:48:29;;;;;;;8.43;3.72;;;;;;;;;;2123172;28;20051;-44
2022/01/21 02:49:30;;;;;;;8.77;4.65;;;;;;;;;;2117297;27;20526;-44
2022/01/21 02:50:31;;;;;;;11.27;5.03;;;;;;;;;;2123090;28;20088;-44
2022/01/21 02:51:32;;;;;;;10.00;4.45;;;;;;;;;;2123847;27;20139;-45
2022/01/21 02:52:42;;;;;;;12.13;5.03;;;;;;;;;;2115565;28;20089;-44
2022/01/21 02:55:03;;;;;;;9.70;4.60;;;;;;;;;;2117406;27;20043;-44
2022/01/21 02:56:04;;;;;;;9.43;5.10;;;;;;;;;;2114608;28;20054;-44
2022/01/21 02:57:06;;;;;;;8.40;4.10;;;;;;;;;;2114476;27;20515;-44
2022/01/21 02:58:07;;;;;;;9.98;5.15;;;;;;;;;;2119049;28;20134;-45
2022/01/21 02:59:09;;;;;;;12.27;5.25;;;;;;;;;;2123164;28;20051;-44
2022/01/21 03:00:10;;;;;;;9.52;5.35;;;;;;;;;;2121357;27;20587;-43
2022/01/21 03:01:12;;;;;;;9.23;4.72;;;;;;;;;;2115756;28;20221;-43
2022/01/21 03:02:14;;;;;;;10.85;4.53;;;;;;;;;;2114517;28;20544;-43
2022/01/21 03:03:15;;;;;;;12.73;4.65;;;;;;;;;;2117333;27;20050;-44
2022/01/21 03:04:24;;;;;;;7.75;4.45;;;;;;;;;;2121682;28;20046;-43
2022/01/21 03:05:25;;;;;;;10.80;5.22;;;;;;;;;;2123212;28;20116;-43
2022/01/21 03:06:27;;;;;;;9.40;5.17;;;;;;;;;;2118432;27;20047;-44
2022/01/21 03:07:28;;;;;;;8.18;3.72;;;;;;;;;;2123128;28;20122;-44
2022/01/21 03:08:29;;;;;;;9.85;5.70;;;;;;;;;;2122568;27;20506;-44
2022/01/21 03:09:30;;;;;;;9.82;4.10;;;;;;;;;;2120179;28;20122;-44
2022/01/21 03:10:31;;;;;;;10.85;4.75;;;;;;;;;;2123125;28;20053;-44
2022/01/21 03:11:33;;;;;;;7.57;3.95;;;;;;;;;;2121038;27;20094;-43
2022/01/21 03:12:34;;;;;;;8.75;4.68;;;;;;;;;;2115302;28;20560;-43
2022/01/21 03:13:35;;;;;;;12.18;4.80;;;;;;;;;;2114643;28;20043;-44
2022/01/21 03:14:36;;;;;;;7.50;4.45;;;;;;;;;;2117378;27;20078;-45
2022/01/21 03:15:37;;;;;;;11.90;4.40;;;;;;;;;;2121699;28;20066;-44
2022/01/21 03:16:38;;;;;;;8.67;3.97;;;;;;;;;;2123197;28;20043;-44
2022/01/21 03:17:39;;;;;;;11.40;5.05;;;;;;;;;;2116576;27;20049;-44
2022/01/21 03:18:40;;;;;;;7.15;4.50;;;;;;;;;;2114681;28;20130;-44
2022/01/21 03:19:41;;;;;;;8.40;4.85;;;;;;;;;;2114664;28;20073;-44
2022/01/21 03:20:43;;;;;;;7.68;4.28;;;;;;;;;;2118466;27;20156;-44
2022/01/21 03:21:44;;;;;;;;;;;;;;;;;;2123431;28;20214;-44
2022/01/21 03:22:46;;;;;;;6.65;3.13;;;;;;;;;;2123223;27;19931;-44
2022/01/21 03:23:48;;;;;;;9.20;3.75;;;;;;;;;;2119740;28;20051;-45
2022/01/21 03:24:49;;;;;;;7.03;4.32;;;;;;;;;;2123057;28;20130;-44
2022/01/21 03:25:50;;;;;;;9.77;4.32;;;;;;;;;;2120896;27;20146;-44
2022/01/21 03:26:51;;;;;;;8.20;4.85;;;;;;;;;;2121738;28;20043;-44
2022/01/21 03:27:52;;;;;;;9.18;4.57;;;;;;;;;;2122960;28;20130;-44
2022/01/21 03:28:54;;;;;;;11.18;4.53;;;;;;;;;;2118753;27;20040;-43
2022/01/21 03:29:57;;;;;;;8.40;3.92;;;;;;;;;;2114559;28;20216;-44
2022/01/21 03:30:58;;;;;;;8.82;3.95;;;;;;;;;;2114378;28;20126;-44
2022/01/21 03:31:59;;;;;;;9.18;4.22;;;;;;;;;;2119171;27;20127;-44
2022/01/21 03:33:00;;;;;;;6.50;4.53;;;;;;;;;;2122927;28;20051;-44
2022/01/21 03:34:02;;;;;;;9.48;4.63;;;;;;;;;;2123494;27;20585;-44
2022/01/21 03:35:03;;;;;;;11.27;4.82;;;;;;;;;;2120236;28;20077;-44
2022/01/21 03:36:05;;;;;;;10.45;4.75;;;;;;;;;;2122915;28;20068;-44
2022/01/21 03:37:06;;;;;;;6.90;3.92;;;;;;;;;;2121559;27;20133;-44
2022/01/21 03:38:07;;;;;;;8.18;4.85;;;;;;;;;;2120686;27;20472;-44
2022/01/21 03:39:09;;;;;;;10.20;4.35;;;;;;;;;;2122825;28;20050;-45
2022/01/21 03:40:11;;;;;;;7.57;3.53;;;;;;;;;;2120337;27;20066;-44
2022/01/21 03:41:12;;;;;;;9.43;5.25;;;;;;;;;;2122156;28;20078;-44
2022/01/21 03:42:13;;;;;;;9.20;4.68;;;;;;;;;;2122274;28;20224;-44
2022/01/21 03:43:15;;;;;;;8.45;4.38;;;;;;;;;;2119639;27;20130;-44
2022/01/21 03:44:16;;;;;;;8.73;4.93;;;;;;;;;;2122871;28;20138;-43
2022/01/21 03:45:17;;;;;;;10.53;4.57;;;;;;;;;;2123050;27;20047;-44
2022/01/21 03:46:18;;;;;;;7.68;4.55;;;;;;;;;;2116153;27;20075;-44
2022/01/21 03:47:19;;;;;;;11.00;5.85;;;;;;;;;;2114322;28;20138;-44
2022/01/21 03:48:20;;;;;;;9.82;4.13;;;;;;;;;;2113927;27;20048;-47
2022/01/21 03:49:21;;;;;;;10.90;4.95;;;;;;;;;;2115198;28;20572;-47
2022/01/21 03:50:29;;;;;;;9.50;5.28;;;;;;;;;;2114311;28;20059;-48
2022/01/21 03:51:31;;;;;;;6.95;4.47;;;;;;;;;;2116004;27;20047;-48
2022/01/21 03:52:32;;;;;;;9.57;4.25;;;;;;;;;;2122155;28;20517;-49
2022/01/21 03:53:33;;;;;;;9.07;4.93;;;;;;;;;;2122752;28;20137;-51
2022/01/21 03:54:35;;;;;;;7.15;3.53;;;;;;;;;;2120282;27;20075;-48
2022/01/21 03:55:37;;;;;;;12.50;5.32;;;;;;;;;;2122722;28;20130;-51
2022/01/21 03:56:39;;;;;;;10.27;4.32;;;;;;;;;;2123007;27;20049;-50
2022/01/21 03:57:41;;;;;;;10.35;4.70;;;;;;;;;;2119131;27;20066;-48
2022/01/21 03:58:42;;;;;;;9.65;4.80;;;;;;;;;;2122742;28;20122;-48
2022/01/21 03:59:43;;;;;;;7.80;4.47;;;;;;;;;;2121892;27;21356;-50
2022/01/21 04:00:46;;;;;;;9.50;4.55;;;;;;;;;;2121051;28;20144;-45
2022/01/21 04:01:47;;;;;;;9.70;4.78;;;;;;;;;;2114291;28;20043;-44
2022/01/21 04:02:48;;;;;;;10.32;5.40;;;;;;;;;;2117173;27;20126;-44
2022/01/21 04:03:50;;;;;;;11.70;4.93;;;;;;;;;;2122187;28;20087;-47
2022/01/21 04:04:50;;;;;;;7.53;4.60;;;;;;;;;;2122658;28;20075;-47
2022/01/21 04:05:52;;;;;;;9.10;4.90;;;;;;;;;;2120781;27;20400;-47
2022/01/21 04:06:53;;;;;;;8.05;4.63;;;;;;;;;;2122685;28;20051;-48
2022/01/21 04:07:54;;;;;;;11.03;5.63;;;;;;;;;;2122222;28;20043;-48
2022/01/21 04:08:55;;;;;;;10.95;4.95;;;;;;;;;;2119935;27;20050;-48
2022/01/21 04:09:57;;;;;;;9.57;4.67;;;;;;;;;;2122723;28;20094;-48
2022/01/21 04:10:57;;;;;;;;;;;;;;;;;;2123281;27;20126;-48
2022/01/21 04:12:01;;;;;;;12.45;4.28;;;;;;;;;;2115142;28;20010;-48
2022/01/21 04:13:02;;;;;;;9.27;3.97;;;;;;;;;;2114286;28;20134;-48
2022/01/21 04:14:04;;;;;;;11.68;5.60;;;;;;;;;;2116463;27;20483;-48
2022/01/21 04:15:05;;;;;;;11.38;4.82;;;;;;;;;;2121396;28;20451;-48
2022/01/21 04:16:07;;;;;;;9.77;4.65;;;;;;;;;;2122570;28;20130;-47
2022/01/21 04:17:08;;;;;;;12.75;6.28;;;;;;;;;;2119287;27;20504;-48
2022/01/21 04:18:09;;;;;;;14.18;4.82;;;;;;;;;;2122708;28;20055;-47
2022/01/21 04:19:10;;;;;;;9.65;5.38;;;;;;;;;;2122920;28;20054;-48
2022/01/21 04:20:12;;;;;;;9.15;5.07;;;;;;;;;;2119820;27;20039;-49
2022/01/21 04:21:13;;;;;;;11.15;6.03;;;;;;;;;;2122640;28;20638;-48
2022/01/21 04:22:14;;;;;;;11.20;5.70;;;;;;;;;;2123165;27;20047;-47
2022/01/21 04:23:15;;;;;;;7.60;5.32;;;;;;;;;;2119143;28;20578;-48
2022/01/21 04:24:17;;;;;;;9.65;4.85;;;;;;;;;;2122602;28;20141;-49
2022/01/21 04:25:18;;;;;;;11.27;5.97;;;;;;;;;;2121234;27;20065;-49
2022/01/21 04:26:19;;;;;;;9.95;4.05;;;;;;;;;;2119944;28;20048;-50
2022/01/21 04:27:20;;;;;;;10.30;5.10;;;;;;;;;;2122512;28;20083;-47
2022/01/21 04:28:22;;;;;;;11.80;6.53;;;;;;;;;;2120156;27;20101;-48
2022/01/21 04:29:22;;;;;;;12.90;5.05;;;;;;;;;;2122186;28;20471;-48
2022/01/21 04:30:24;;;;;;;10.32;5.57;;;;;;;;;;2122719;28;20100;-49
2022/01/21 04:31:24;;;;;;;13.07;6.32;;;;;;;;;;2117958;27;20579;-48
2022/01/21 04:32:26;;;;;;;9.20;5.43;;;;;;;;;;2122709;28;20058;-48
2022/01/21 04:33:27;;;;;;;13.02;6.47;;;;;;;;;;2122640;27;20122;-47
2022/01/21 04:34:28;;;;;;;9.75;5.97;;;;;;;;;;2119396;27;20095;-47
2022/01/21 04:35:29;;;;;;;13.25;5.65;;;;;;;;;;2122561;28;20047;-48
2022/01/21 04:36:31;;;;;;;14.73;6.95;;;;;;;;;;2123317;27;20051;-48
2022/01/21 04:37:32;;;;;;;11.40;5.60;;;;;;;;;;2120079;28;20043;-49
2022/01/21 04:38:34;;;;;;;12.90;6.37;;;;;;;;;;2122020;28;20043;-47
2022/01/21 04:39:40;;;;;;;11.10;5.82;;;;;;;;;;2120751;27;20086;-48
2022/01/21 04:40:48;;;;;;;9.63;5.35;;;;;;;;;;2113896;28;20051;-48
2022/01/21 04:47:18;;;;;;;12.88;5.88;;;;;;;;;;2113989;28;20048;-49
2022/01/21 04:48:19;;;;;;;14.52;6.40;;;;;;;;;;2116130;27;20046;-47
2022/01/21 04:49:20;;;;;;;11.82;6.55;;;;;;;;;;2122343;28;20594;-47
2022/01/21 04:50:21;;;;;;;13.10;5.03;;;;;;;;;;2122586;27;20051;-49
2022/01/21 04:51:27;;;;;;;11.18;5.60;;;;;;;;;;2120758;27;20512;-47
2022/01/21 04:52:28;;;;;;;11.73;6.25;;;;;;;;;;2124162;28;20710;-49
2022/01/21 04:53:32;;;;;;;12.57;5.60;;;;;;;;;;2123845;27;20126;-48
2022/01/21 04:54:34;;;;;;;12.95;5.32;;;;;;;;;;2120508;28;20551;-48
2022/01/21 04:55:35;;;;;;;11.82;6.50;;;;;;;;;;2123857;28;20137;-48
2022/01/21 04:56:37;;;;;;;13.27;5.97;;;;;;;;;;2122095;27;20207;-48
2022/01/21 04:57:38;;;;;;;10.05;5.65;;;;;;;;;;2115388;28;20552;-48
2022/01/21 04:58:39;;;;;;;10.32;5.72;;;;;;;;;;2115328;28;20489;-47
2022/01/21 04:59:41;;;;;;;17.20;7.03;;;;;;;;;;2119006;27;20047;-50
2022/01/21 05:00:43;;;;;;;12.52;6.82;;;;;;;;;;2123928;28;20057;-48
2022/01/21 05:01:44;;;;;;;15.73;7.57;;;;;;;;;;2115146;27;20416;-48
2022/01/21 05:02:46;;;;;;;12.75;7.82;;;;;;;;;;2120983;27;20066;-48
2022/01/21 05:03:47;;;;;;;13.07;6.80;;;;;;;;;;2123858;28;20569;-48
2022/01/21 05:04:48;;;;;;;15.07;6.55;;;;;;;;;;2123737;27;20495;-48
2022/01/21 05:05:49;;;;;;;13.68;7.28;;;;;;;;;;2120823;28;20568;-50
2022/01/21 05:06:52;;;;;;;13.25;6.63;;;;;;;;;;2124189;28;20133;-44
2022/01/21 05:07:54;;;;;;;13.52;6.13;;;;;;;;;;2122598;27;20130;-44
2022/01/21 05:09:01;;;;;;;12.88;6.78;;;;;;;;;;2115396;28;20051;-44
2022/01/21 05:10:03;;;;;;;13.18;7.15;;;;;;;;;;2115404;28;20079;-44
2022/01/21 05:11:04;;;;;;;12.70;5.70;;;;;;;;;;2119405;27;20546;-43
2022/01/21 05:12:08;;;;;;;7.75;4.57;;;;;;;;;;2123840;28;20131;-43
2022/01/21 05:13:09;;;;;;;13.02;7.40;;;;;;;;;;2123450;27;20074;-44
2022/01/21 05:14:16;;;;;;;10.57;6.60;;;;;;;;;;2121730;28;20470;-44
2022/01/21 05:15:24;;;;;;;15.05;6.75;;;;;;;;;;2124040;28;20122;-43
2022/01/21 05:16:32;;;;;;;11.52;6.53;;;;;;;;;;2121898;27;20070;-42
2022/01/21 05:17:42;;;;;;;18.40;6.82;;;;;;;;;;2115582;28;20426;-44
2022/01/21 05:18:43;;;;;;;12.20;5.60;;;;;;;;;;2115362;28;20118;-43
2022/01/21 05:19:44;;;;;;;14.70;7.93;;;;;;;;;;2118407;28;20407;-44
2022/01/21 05:20:45;;;;;;;14.15;5.10;;;;;;;;;;2123683;28;20134;-43
2022/01/21 05:21:47;;;;;;;8.18;4.22;;;;;;;;;;2121734;27;20147;-43
2022/01/21 05:22:49;;;;;;;15.52;7.45;;;;;;;;;;2121181;28;20138;-43
2022/01/21 05:23:49;;;;;;;15.20;5.40;;;;;;;;;;2123919;28;20057;-43
2022/01/21 05:24:51;;;;;;;12.88;7.65;;;;;;;;;;2120577;27;20075;-43
2022/01/21 05:25:52;;;;;;;13.35;6.53;;;;;;;;;;2122370;28;20051;-44
2022/01/21 05:26:54;;;;;;;15.87;7.37;;;;;;;;;;2123622;28;20570;-44
2022/01/21 05:27:58;;;;;;;10.73;5.38;;;;;;;;;;2120664;27;20127;-44
2022/01/21 05:28:59;;;;;;;11.70;5.30;;;;;;;;;;2115197;28;20134;-44
2022/01/21 05:30:01;;;;;;;13.83;8.13;;;;;;;;;;2115269;28;20051;-44
2022/01/21 05:31:02;;;;;;;14.57;7.03;;;;;;;;;;2120219;27;20187;-44
2022/01/21 05:32:04;;;;;;;15.33;6.80;;;;;;;;;;2123864;28;20063;-45
2022/01/21 05:33:05;;;;;;;12.75;6.85;;;;;;;;;;2124106;27;20640;-44
2022/01/21 05:34:06;;;;;;;14.47;5.73;;;;;;;;;;2121130;28;20073;-44
2022/01/21 05:35:08;;;;;;;14.38;6.30;;;;;;;;;;2123140;28;20066;-44
2022/01/21 05:36:09;;;;;;;12.68;6.82;;;;;;;;;;2119366;27;20131;-45
2022/01/21 05:37:10;;;;;;;10.25;6.15;;;;;;;;;;2121192;28;20039;-44
2022/01/21 05:38:11;;;;;;;8.05;5.88;;;;;;;;;;2123640;28;20051;-44
2022/01/21 05:39:13;;;;;;;9.23;6.05;;;;;;;;;;2121123;27;20051;-44
2022/01/21 05:40:15;;;;;;;14.27;6.90;;;;;;;;;;2123277;28;20388;-43
2022/01/21 05:41:18;;;;;;;9.95;6.03;;;;;;;;;;2123764;28;20057;-47
2022/01/21 05:42:20;;;;;;;13.15;6.45;;;;;;;;;;2120537;27;20416;-48
2022/01/21 05:43:22;;;;;;;12.88;7.40;;;;;;;;;;2123737;28;20134;-48
2022/01/21 05:47:00;;;;;;;11.40;5.38;;;;;;;;;;2123686;28;20047;-44
2022/01/21 05:48:01;;;;;;;13.80;7.05;;;;;;;;;;2120522;27;20048;-44
2022/01/21 05:49:02;;;;;;;10.15;4.72;;;;;;;;;;2123855;28;20480;-46
2022/01/21 05:50:03;;;;;;;14.98;7.88;;;;;;;;;;2124513;27;20094;-48
2022/01/21 05:51:05;;;;;;;13.20;6.07;;;;;;;;;;2117054;28;20095;-47
2022/01/21 05:52:09;;;;;;;11.55;5.75;;;;;;;;;;2115034;28;20582;-49
2022/01/21 05:53:11;;;;;;;13.60;6.38;;;;;;;;;;2115571;27;20043;-49
2022/01/21 05:54:13;;;;;;;10.88;6.32;;;;;;;;;;2122199;28;20521;-48
2022/01/21 05:55:15;;;;;;;13.48;6.35;;;;;;;;;;2123505;28;20051;-47
2022/01/21 05:56:15;;;;;;;13.32;6.35;;;;;;;;;;2119076;27;20496;-48
2022/01/21 05:57:19;;;;;;;12.48;5.82;;;;;;;;;;2115022;28;20108;-47
2022/01/21 05:58:20;;;;;;;12.48;7.00;;;;;;;;;;2115250;28;20055;-44
2022/01/21 05:59:22;;;;;;;11.95;5.65;;;;;;;;;;2119871;27;20126;-44
2022/01/21 06:00:23;;;;;;;;;;;;;;;;;;2123999;28;20403;-44
2022/01/21 06:01:24;;;;;;;14.93;6.00;;;;;;;;;;2118272;27;19920;-44
2022/01/21 06:02:26;;;;;;;15.30;7.35;;;;;;;;;;2121099;28;20129;-44
2022/01/21 06:03:27;;;;;;;12.27;7.05;;;;;;;;;;2123618;28;20130;-44
2022/01/21 06:04:28;;;;;;;9.17;5.10;;;;;;;;;;2121908;27;20039;-43
2022/01/21 06:05:33;;;;;;;11.50;6.63;;;;;;;;;;2122087;28;20279;-43
2022/01/21 06:06:33;;;;;;;11.48;6.75;;;;;;;;;;2123500;28;20039;-43
2022/01/21 06:07:35;;;;;;;14.20;6.53;;;;;;;;;;2121556;27;20043;-43
2022/01/21 06:08:37;;;;;;;14.35;7.38;;;;;;;;;;2114982;28;20043;-43
2022/01/21 06:09:37;;;;;;;24.92;8.32;;;;;;;;;;2114998;28;20408;-43
2022/01/21 06:10:39;;;;;;;11.40;6.07;;;;;;;;;;2119443;27;20052;-44
2022/01/21 06:11:40;;;;;;;11.73;6.35;;;;;;;;;;2123634;28;20176;-43
2022/01/21 06:12:41;;;;;;;11.65;7.55;;;;;;;;;;2124016;27;20047;-43
2022/01/21 06:13:44;;;;;;;13.13;7.35;;;;;;;;;;2119592;27;20448;-44
2022/01/21 06:14:46;;;;;;;16.15;6.60;;;;;;;;;;2123425;28;20095;-43
2022/01/21 06:15:47;;;;;;;14.27;7.80;;;;;;;;;;2122190;27;20133;-43
2022/01/21 06:16:48;;;;;;;14.10;6.43;;;;;;;;;;2121750;28;20650;-43
2022/01/21 06:17:50;;;;;;;15.52;7.72;;;;;;;;;;2123429;28;20054;-45
2022/01/21 06:18:51;;;;;;;13.00;4.97;;;;;;;;;;2118454;27;20130;-43
2022/01/21 06:19:52;;;;;;;14.90;6.88;;;;;;;;;;2115037;28;20043;-45
2022/01/21 06:20:53;;;;;;;14.80;6.67;;;;;;;;;;2114889;28;20052;-44
2022/01/21 06:21:54;;;;;;;14.30;6.90;;;;;;;;;;2116313;27;20461;-44
2022/01/21 06:22:55;;;;;;;15.40;6.30;;;;;;;;;;2114988;28;20047;-44
2022/01/21 06:23:56;;;;;;;12.23;6.68;;;;;;;;;;2114955;27;20409;-43
2022/01/21 06:24:57;;;;;;;9.48;5.95;;;;;;;;;;2120409;27;20047;-44
2022/01/21 06:25:58;;;;;;;14.40;6.80;;;;;;;;;;2123477;28;20051;-43
2022/01/21 06:27:02;;;;;;;9.68;4.47;;;;;;;;;;2123097;27;20133;-44
2022/01/21 06:28:03;;;;;;;12.20;6.63;;;;;;;;;;2115758;28;20044;-43
2022/01/21 06:29:04;;;;;;;12.60;7.07;;;;;;;;;;2114968;28;20560;-43
2022/01/21 06:30:07;;;;;;;11.00;6.38;;;;;;;;;;2117638;27;20078;-43
2022/01/21 06:31:08;;;;;;;13.45;6.97;;;;;;;;;;2122677;28;20130;-44
2022/01/21 06:32:09;;;;;;;12.13;6.33;;;;;;;;;;2123175;27;20536;-43
2022/01/21 06:33:11;;;;;;;12.00;7.38;;;;;;;;;;2120203;27;20077;-43
2022/01/21 06:34:12;;;;;;;13.95;5.68;;;;;;;;;;2123356;28;20117;-43
2022/01/21 06:35:16;;;;;;;13.75;7.65;;;;;;;;;;2122775;27;20050;-44
2022/01/21 06:36:17;;;;;;;;;;;;;;;;;;2116347;28;20127;-47
2022/01/21 06:37:18;;;;;;;13.10;5.22;;;;;;;;;;2114792;28;20006;-47
2022/01/21 06:38:20;;;;;;;13.52;5.63;;;;;;;;;;2115768;27;20629;-47
2022/01/21 06:39:21;;;;;;;10.82;6.80;;;;;;;;;;2121889;28;20506;-47
2022/01/21 06:40:22;;;;;;;11.77;6.65;;;;;;;;;;2123320;28;20134;-47
2022/01/21 06:41:24;;;;;;;12.35;6.00;;;;;;;;;;2119775;27;20529;-47
2022/01/21 06:42:27;;;;;;;10.85;6.57;;;;;;;;;;2123164;28;20122;-49
2022/01/21 06:43:28;;;;;;;11.07;5.38;;;;;;;;;;2123342;28;20057;-47
2022/01/21 06:44:29;;;;;;;14.13;7.18;;;;;;;;;;2119184;28;20039;-47
2022/01/21 06:45:31;;;;;;;14.38;8.18;;;;;;;;;;2123341;28;20058;-47
2022/01/21 06:46:32;;;;;;;;;;;;;;;;;;2123358;27;20131;-47
2022/01/21 06:47:33;;;;;;;9.70;4.70;;;;;;;;;;2120252;28;20329;-46
2022/01/21 06:48:34;;;;;;;10.02;5.60;;;;;;;;;;2123231;28;20138;-47
2022/01/21 06:49:39;;;;;;;9.90;5.68;;;;;;;;;;2118683;27;20197;-47
2022/01/21 06:50:41;;;;;;;12.25;6.95;;;;;;;;;;2121752;28;20129;-47